Time;durP1;ratioP1;P1;durP2;ratioP2;P2;SDS_P1;SDS_P2;PMS_P1;PMS_P2;Temp;Humidity;BMP_temperature;BMP_pressure;BME280_temperature;BME280_humidity;BME280_pressure;Samples;Min_cycle;Max_cycle;Signal;HPM_P1;HPM_P2
2023/03/02 00:00:58;;;;;;;22.00;11.73;;;;;;;5.77;46.98;100974.09;5093068;28;20214;-60
2023/03/02 00:03:27;;;;;;;22.70;11.20;;;;;;;5.75;47.02;100969.88;5089096;28;20202;-62
2023/03/02 00:05:56;;;;;;;30.07;11.43;;;;;;;5.77;46.95;100978.53;5095347;28;20237;-60
2023/03/02 00:08:24;;;;;;;20.37;10.93;;;;;;;5.68;47.28;100969.47;5097653;28;20235;-60
2023/03/02 00:10:53;;;;;;;22.20;11.27;;;;;;;5.66;47.31;100966.09;5093860;28;20214;-62
2023/03/02 00:13:22;;;;;;;22.63;11.27;;;;;;;5.70;47.25;100977.28;5095041;28;20206;-61
2023/03/02 00:15:50;;;;;;;22.70;11.93;;;;;;;5.68;47.32;100972.94;5095068;28;20205;-61
2023/03/02 00:18:18;;;;;;;23.17;11.40;;;;;;;5.68;47.31;100967.69;5097461;28;20210;-62
2023/03/02 00:20:45;;;;;;;21.87;11.13;;;;;;;5.64;47.17;100971.47;5098495;28;20820;-62
2023/03/02 00:23:15;;;;;;;25.87;11.30;;;;;;;5.58;47.33;100963.16;5099735;28;20221;-61
2023/03/02 00:25:42;;;;;;;21.50;10.60;;;;;;;5.59;47.48;100968.31;5100036;28;22654;-60
2023/03/02 00:28:10;;;;;;;23.20;11.43;;;;;;;5.60;47.41;100961.25;5094026;28;20304;-63
2023/03/02 00:30:39;;;;;;;21.10;10.70;;;;;;;5.60;47.43;100962.09;5096850;28;20210;-63
2023/03/02 00:33:07;;;;;;;23.73;11.20;;;;;;;5.62;47.44;100965.47;5099175;28;20232;-62
2023/03/02 00:35:37;;;;;;;21.63;11.70;;;;;;;5.65;47.35;100965.25;5093631;28;20242;-63
2023/03/02 00:38:06;;;;;;;24.67;11.47;;;;;;;5.60;47.40;100962.09;5101293;28;20582;-60
2023/03/02 00:40:34;;;;;;;22.30;11.60;;;;;;;5.57;47.30;100961.47;5102090;27;20210;-61
2023/03/02 00:43:01;;;;;;;22.80;11.70;;;;;;;5.58;47.36;100964.00;5099707;27;20209;-62
2023/03/02 00:45:29;;;;;;;23.13;11.37;;;;;;;5.56;47.59;100965.88;5095005;28;21165;-62
2023/03/02 00:47:58;;;;;;;22.07;11.60;;;;;;;5.57;47.31;100961.47;5099237;28;20221;-61
2023/03/02 00:50:26;;;;;;;28.07;12.00;;;;;;;5.53;47.33;100958.22;5098339;28;20300;-61
2023/03/02 00:52:54;;;;;;;21.57;11.50;;;;;;;5.53;47.46;100963.47;5101102;28;20262;-62
2023/03/02 00:55:21;;;;;;;17.77;10.60;;;;;;;5.51;47.56;100949.56;5103063;28;20235;-62
2023/03/02 00:57:53;;;;;;;24.43;11.20;;;;;;;5.59;47.49;100957.78;5104231;27;20221;-62
2023/03/02 01:00:22;;;;;;;23.03;10.40;;;;;;;5.59;47.25;100955.16;5100967;28;20255;-62
2023/03/02 01:02:50;;;;;;;21.90;10.10;;;;;;;5.53;47.50;100945.06;5100094;27;20245;-61
2023/03/02 01:05:20;;;;;;;23.10;10.50;;;;;;;5.53;47.52;100945.06;5102139;27;20226;-61
2023/03/02 01:07:48;;;;;;;26.10;11.93;;;;;;;5.52;47.71;100948.63;5102262;27;20206;-62
2023/03/02 01:10:18;;;;;;;21.33;10.80;;;;;;;5.50;47.63;100944.41;5100298;27;20686;-61
2023/03/02 01:12:46;;;;;;;22.30;10.90;;;;;;;5.47;47.55;100934.94;5099125;27;20210;-63
2023/03/02 01:15:14;;;;;;;24.33;11.73;;;;;;;5.45;47.42;100936.84;5097935;28;20214;-61
2023/03/02 01:17:42;;;;;;;21.80;10.20;;;;;;;5.47;47.45;100934.94;5103099;27;20786;-60
2023/03/02 01:20:11;;;;;;;23.20;11.07;;;;;;;5.46;47.46;100932.41;5099370;27;20202;-62
2023/03/02 01:22:41;;;;;;;23.73;10.77;;;;;;;5.43;47.36;100922.94;5094671;28;20309;-62
2023/03/02 01:25:10;;;;;;;18.23;10.30;;;;;;;5.43;47.43;100920.31;5096077;28;20233;-61
2023/03/02 01:27:37;;;;;;;23.60;10.63;;;;;;;5.37;47.64;100918.09;5097269;27;20638;-61
2023/03/02 01:30:06;;;;;;;19.63;11.40;;;;;;;5.36;47.63;100916.44;5095676;27;20211;-62
2023/03/02 01:32:34;;;;;;;21.80;11.27;;;;;;;5.33;47.61;100918.41;5096445;28;20869;-62
2023/03/02 01:35:02;;;;;;;21.30;10.60;;;;;;;5.27;48.03;100917.06;5086948;28;20729;-61
2023/03/02 01:37:30;;;;;;;19.53;9.97;;;;;;;5.23;47.81;100921.66;5075793;28;20753;-63
2023/03/02 01:40:05;;;;;;;21.37;10.27;;;;;;;5.16;47.95;100911.66;5076795;28;20214;-60
2023/03/02 01:42:36;;;;;;;18.97;10.67;;;;;;;5.09;47.94;100913.03;5071195;28;20210;-62
2023/03/02 01:45:06;;;;;;;20.47;9.80;;;;;;;5.00;48.06;100909.22;5068555;28;20224;-60
2023/03/02 01:47:36;;;;;;;20.83;10.20;;;;;;;5.03;48.30;100908.16;5077371;28;20218;-61
2023/03/02 01:50:12;;;;;;;20.57;9.97;;;;;;;5.06;48.26;100897.44;5079978;28;20211;-61
2023/03/02 01:52:40;;;;;;;21.10;10.37;;;;;;;5.10;48.02;100901.56;5079194;28;20267;-61
2023/03/02 01:55:15;;;;;;;22.50;10.33;;;;;;;5.09;48.18;100897.25;5079198;28;20213;-62
2023/03/02 01:57:46;;;;;;;18.30;9.97;;;;;;;5.14;48.02;100903.03;5079637;28;20215;-63
2023/03/02 02:00:18;;;;;;;21.97;10.10;;;;;;;5.15;47.86;100899.47;5076047;28;20229;-62
2023/03/02 02:02:46;;;;;;;21.10;10.40;;;;;;;5.13;47.98;100890.81;5078497;28;20302;-63
2023/03/02 02:05:19;;;;;;;19.27;9.47;;;;;;;5.08;48.05;100892.94;5076798;28;20229;-62
2023/03/02 02:07:47;;;;;;;18.00;10.17;;;;;;;5.01;48.27;100895.13;5075525;28;20215;-61
2023/03/02 02:10:16;;;;;;;22.07;10.53;;;;;;;5.01;48.32;100886.41;5076018;28;20207;-61
2023/03/02 02:12:44;;;;;;;19.27;9.10;;;;;;;5.01;48.41;100891.66;5079395;28;20213;-63
2023/03/02 02:15:12;;;;;;;21.40;10.23;;;;;;;4.99;48.43;100876.00;5077020;28;20220;-62
2023/03/02 02:17:40;;;;;;;18.70;9.80;;;;;;;4.97;48.23;100882.28;5079355;28;20264;-61
2023/03/02 02:20:23;;;;;;;21.07;10.60;;;;;;;4.99;48.44;100881.25;5075195;28;20313;-62
2023/03/02 02:23:03;;;;;;;19.97;9.80;;;;;;;4.98;48.35;100879.56;5079429;28;20241;-62
2023/03/02 02:25:44;;;;;;;22.00;10.33;;;;;;;4.98;48.18;100876.09;5072427;28;20225;-63
2023/03/02 02:28:19;;;;;;;21.87;10.80;;;;;;;4.97;48.35;100875.25;5077084;28;20218;-63
2023/03/02 02:30:52;;;;;;;19.10;10.00;;;;;;;4.93;48.42;100868.50;5076537;28;20209;-64
2023/03/02 02:33:24;;;;;;;20.10;10.00;;;;;;;4.93;48.31;100871.13;5076364;28;20635;-61
2023/03/02 02:35:55;;;;;;;19.17;9.67;;;;;;;4.92;48.23;100870.28;5087643;28;20589;-61
2023/03/02 02:38:25;;;;;;;24.80;10.57;;;;;;;4.89;48.25;100870.50;5095066;28;20209;-62
2023/03/02 02:40:56;;;;;;;25.67;10.37;;;;;;;4.91;48.51;100866.00;5096372;28;20209;-62
2023/03/02 02:43:30;;;;;;;20.27;9.77;;;;;;;4.89;48.54;100870.50;5097847;28;20775;-61
2023/03/02 02:46:00;;;;;;;21.67;10.33;;;;;;;4.82;48.79;100874.50;5093174;28;20221;-63
2023/03/02 02:48:30;;;;;;;25.10;10.60;;;;;;;4.77;48.81;100871.31;5096937;28;20213;-61
2023/03/02 02:51:01;;;;;;;23.47;9.50;;;;;;;4.71;48.73;100876.13;5094047;27;20304;-62
2023/03/02 02:53:37;;;;;;;21.63;10.00;;;;;;;4.72;48.90;100876.03;5093939;28;20228;-62
2023/03/02 02:56:08;;;;;;;19.27;9.43;;;;;;;4.74;48.68;100876.78;5094950;28;20204;-60
2023/03/02 02:58:41;;;;;;;20.90;10.03;;;;;;;4.72;48.58;100878.66;5097707;28;20203;-61
2023/03/02 03:01:13;;;;;;;23.50;10.23;;;;;;;4.72;48.74;100881.28;5097865;28;20625;-61
2023/03/02 03:03:47;;;;;;;20.33;9.63;;;;;;;4.71;48.82;100881.38;5099939;28;20216;-61
2023/03/02 03:06:19;;;;;;;18.17;9.77;;;;;;;4.79;48.48;100884.34;5098274;28;20236;-61
2023/03/02 03:08:54;;;;;;;20.40;10.20;;;;;;;4.78;48.50;100875.63;5094588;28;20220;-60
2023/03/02 03:11:25;;;;;;;18.17;9.47;;;;;;;4.73;48.50;100876.88;5091588;28;20205;-63
2023/03/02 03:14:02;;;;;;;24.27;10.20;;;;;;;4.61;48.84;100869.78;5094980;28;20668;-61
2023/03/02 03:16:32;;;;;;;19.97;9.17;;;;;;;4.49;49.14;100874.91;5095742;28;20204;-59
2023/03/02 03:19:06;;;;;;;21.03;10.20;;;;;;;4.48;49.39;100872.38;5095009;28;20215;-60
2023/03/02 03:21:35;;;;;;;20.27;10.07;;;;;;;4.50;49.39;100873.97;5093343;28;20204;-61
2023/03/02 03:24:02;;;;;;;22.53;10.07;;;;;;;4.55;49.17;100871.03;5093358;28;20205;-61
2023/03/02 03:26:30;;;;;;;18.63;9.53;;;;;;;4.55;49.21;100865.78;5095997;28;20704;-62
2023/03/02 03:29:00;;;;;;;23.47;9.53;;;;;;;4.54;49.19;100862.31;5091659;28;20222;-63
2023/03/02 03:31:28;;;;;;;22.07;9.53;;;;;;;4.64;49.04;100865.19;5097429;28;20209;-61
2023/03/02 03:33:59;;;;;;;21.00;10.03;;;;;;;4.63;49.05;100867.91;5093193;28;20216;-60
2023/03/02 03:36:27;;;;;;;21.87;9.93;;;;;;;4.64;49.18;100859.09;5095406;28;20237;-62
2023/03/02 03:38:58;;;;;;;25.10;10.10;;;;;;;4.57;49.17;100866.53;5096090;28;20217;-61
2023/03/02 03:41:26;;;;;;;21.87;9.73;;;;;;;4.55;49.26;100865.78;5096443;28;20266;-63
2023/03/02 03:43:55;;;;;;;19.57;9.40;;;;;;;4.51;49.48;100862.50;5094776;28;21052;-60
2023/03/02 03:46:25;;;;;;;22.93;10.13;;;;;;;4.51;49.35;100857.25;5094669;28;20232;-61
2023/03/02 03:48:52;;;;;;;18.03;10.07;;;;;;;4.53;49.48;100852.75;5089916;28;20751;-61
2023/03/02 03:51:20;;;;;;;22.67;10.57;;;;;;;4.56;49.24;100850.88;5093797;28;20851;-65
2023/03/02 03:53:58;;;;;;;19.40;10.00;;;;;;;4.53;49.11;100844.88;5095737;28;20201;-61
2023/03/02 03:56:26;;;;;;;18.40;9.77;;;;;;;4.50;49.21;100852.94;5097946;28;20328;-61
2023/03/02 03:59:04;;;;;;;27.23;9.77;;;;;;;4.46;49.58;100850.63;5097492;28;20213;-63
2023/03/02 04:01:35;;;;;;;23.70;10.17;;;;;;;4.37;49.70;100854.69;5095577;28;20220;-62
2023/03/02 04:04:05;;;;;;;24.03;10.20;;;;;;;4.31;49.96;100856.88;5100395;28;20764;-61
2023/03/02 04:06:33;;;;;;;20.07;9.50;;;;;;;4.41;49.73;100853.53;5100036;28;20240;-62
2023/03/02 04:09:03;;;;;;;20.70;9.73;;;;;;;4.47;49.91;100863.66;5099084;27;20206;-61
2023/03/02 04:11:36;;;;;;;20.80;10.17;;;;;;;4.51;49.67;100859.88;5097221;28;20209;-61
2023/03/02 04:14:04;;;;;;;20.20;9.83;;;;;;;4.56;49.56;100871.88;5096142;28;20209;-62
2023/03/02 04:16:34;;;;;;;20.33;10.13;;;;;;;4.58;49.54;100870.81;5096602;28;20203;-62
2023/03/02 04:19:04;;;;;;;22.33;10.50;;;;;;;4.59;49.55;100867.25;5100295;28;20891;-62
2023/03/02 04:21:32;;;;;;;22.50;10.13;;;;;;;4.54;49.55;100870.19;5097292;28;20963;-62
2023/03/02 04:24:00;;;;;;;25.20;10.47;;;;;;;4.57;49.63;100869.16;5095714;28;20212;-62
2023/03/02 04:26:27;;;;;;;22.20;10.70;;;;;;;4.58;49.68;100867.34;5098490;27;20220;-61
2023/03/02 04:28:55;;;;;;;24.07;10.07;;;;;;;4.56;49.61;100878.00;5096344;28;20221;-62
2023/03/02 04:31:23;;;;;;;22.73;9.93;;;;;;;4.54;49.63;100871.97;5095954;28;20663;-62
2023/03/02 04:33:52;;;;;;;22.93;10.57;;;;;;;4.53;49.63;100873.75;5100711;27;20215;-62
2023/03/02 04:36:20;;;;;;;20.43;10.13;;;;;;;4.50;49.84;100886.25;5101789;28;20240;-62
2023/03/02 04:38:49;;;;;;;24.90;10.67;;;;;;;4.43;49.83;100882.34;5097475;28;20332;-63
2023/03/02 04:41:18;;;;;;;25.93;10.60;;;;;;;4.41;49.99;100869.28;5098934;28;20213;-62
2023/03/02 04:43:45;;;;;;;24.40;10.83;;;;;;;4.42;50.22;100875.41;5096095;28;20212;-60
2023/03/02 04:46:23;;;;;;;20.70;10.23;;;;;;;4.38;49.96;100877.41;5096550;28;20628;-62
2023/03/02 04:48:52;;;;;;;20.17;10.00;;;;;;;4.32;49.89;100887.41;5100793;28;20214;-60
2023/03/02 04:51:23;;;;;;;24.83;9.70;;;;;;;4.23;50.34;100885.38;5096626;28;20212;-62
2023/03/02 04:53:52;;;;;;;24.53;10.87;;;;;;;4.27;50.39;100889.50;5095380;28;20224;-60
2023/03/02 04:56:19;;;;;;;24.80;9.97;;;;;;;4.28;50.19;100883.31;5097301;28;20214;-62
2023/03/02 04:58:47;;;;;;;19.03;9.60;;;;;;;4.26;50.27;100879.94;5098641;28;20214;-63
2023/03/02 05:01:17;;;;;;;24.47;10.10;;;;;;;4.15;50.62;100884.09;5099767;28;20832;-61
2023/03/02 05:03:45;;;;;;;20.50;9.57;;;;;;;4.10;50.71;100880.09;5103238;28;20212;-61
2023/03/02 05:06:15;;;;;;;22.53;10.07;;;;;;;4.08;50.95;100872.31;5099317;27;20230;-62
2023/03/02 05:08:43;;;;;;;21.07;9.93;;;;;;;4.15;50.84;100872.75;5097193;28;20223;-62
2023/03/02 05:11:14;;;;;;;20.87;9.43;;;;;;;4.21;50.68;100876.78;5095513;28;20213;-61
2023/03/02 05:13:42;;;;;;;19.60;9.40;;;;;;;4.11;50.82;100877.38;5096762;28;20908;-62
2023/03/02 05:16:10;;;;;;;21.87;10.83;;;;;;;4.06;51.06;100868.09;5097620;28;20302;-63
2023/03/02 05:18:37;;;;;;;22.23;10.17;;;;;;;4.00;51.22;100869.31;5097143;28;20209;-61
2023/03/02 05:21:06;;;;;;;19.60;10.13;;;;;;;4.06;51.22;100874.19;5099990;28;20321;-61
2023/03/02 05:23:35;;;;;;;20.47;10.60;;;;;;;4.10;50.96;100874.84;5097713;28;20755;-59
2023/03/02 05:26:03;;;;;;;23.20;9.50;;;;;;;4.10;50.89;100870.44;5095615;28;20205;-61
2023/03/02 05:28:30;;;;;;;22.40;9.87;;;;;;;4.01;50.88;100865.75;5092845;28;20322;-63
2023/03/02 05:30:59;;;;;;;23.63;9.57;;;;;;;3.99;51.11;100862.38;5096613;28;20211;-61
2023/03/02 05:33:26;;;;;;;21.70;10.00;;;;;;;3.97;51.23;100853.75;5093682;28;20325;-60
2023/03/02 05:35:54;;;;;;;20.33;10.47;;;;;;;4.02;51.10;100856.97;5083022;28;20246;-60
2023/03/02 05:38:23;;;;;;;26.37;10.73;;;;;;;4.07;50.71;100864.53;5076233;28;20208;-62
2023/03/02 05:40:52;;;;;;;21.67;10.57;;;;;;;3.99;51.24;100866.78;5076365;28;20222;-60
2023/03/02 05:43:22;;;;;;;21.73;10.70;;;;;;;3.92;51.53;100870.75;5076208;28;20232;-62
2023/03/02 05:45:50;;;;;;;24.57;10.40;;;;;;;3.88;51.55;100864.00;5077094;28;20212;-63
2023/03/02 05:48:17;;;;;;;24.17;10.53;;;;;;;3.88;51.54;100872.69;5075826;28;20766;-63
2023/03/02 05:50:45;;;;;;;20.83;9.97;;;;;;;3.79;52.20;100871.50;5073107;28;20220;-61
2023/03/02 05:53:13;;;;;;;19.43;9.67;;;;;;;3.86;52.03;100868.50;5077653;28;21107;-62
2023/03/02 05:55:40;;;;;;;24.67;9.80;;;;;;;3.88;51.96;100872.69;5074375;28;20233;-62
2023/03/02 05:58:19;;;;;;;21.63;10.70;;;;;;;3.87;52.18;100878.88;5073994;28;20219;-61
2023/03/02 06:00:48;;;;;;;19.90;9.77;;;;;;;3.87;52.15;100878.88;5076046;28;20205;-62
2023/03/02 06:03:16;;;;;;;19.93;10.20;;;;;;;3.92;52.27;100881.25;5077109;28;20220;-63
2023/03/02 06:05:49;;;;;;;26.03;10.87;;;;;;;3.94;52.23;100882.00;5076329;28;20242;-63
2023/03/02 06:08:17;;;;;;;22.90;10.70;;;;;;;4.00;52.00;100881.59;5077675;28;20231;-61
2023/03/02 06:10:46;;;;;;;19.93;9.33;;;;;;;4.02;51.68;100883.19;5077066;28;20298;-61
2023/03/02 06:13:15;;;;;;;20.83;9.77;;;;;;;4.01;51.91;100892.00;5080086;28;20637;-61
2023/03/02 06:15:43;;;;;;;24.80;9.83;;;;;;;4.04;51.88;100898.84;5077552;28;20218;-62
2023/03/02 06:18:11;;;;;;;22.67;10.47;;;;;;;4.08;51.69;100897.72;5076068;28;20271;-67
2023/03/02 06:20:39;;;;;;;22.63;11.00;;;;;;;4.07;51.52;100896.84;5075894;28;20261;-67
2023/03/02 06:23:07;;;;;;;23.93;10.37;;;;;;;4.06;51.68;100897.78;5076508;28;20212;-67
2023/03/02 06:25:40;;;;;;;23.90;12.20;;;;;;;4.11;51.54;100898.38;5077582;28;20216;-67
2023/03/02 06:28:07;;;;;;;25.17;9.63;;;;;;;4.13;51.43;100891.22;5074504;28;20229;-68
2023/03/02 06:30:36;;;;;;;25.77;9.80;;;;;;;4.23;51.27;100898.50;5076497;28;20208;-67
2023/03/02 06:33:04;;;;;;;21.50;10.00;;;;;;;4.26;51.17;100903.56;5067301;28;20696;-68
2023/03/02 06:35:32;;;;;;;20.50;10.50;;;;;;;4.27;51.20;100907.88;5083941;28;20236;-68
2023/03/02 06:38:00;;;;;;;22.27;9.73;;;;;;;4.35;50.85;100910.88;5102066;28;20205;-67
2023/03/02 06:40:27;;;;;;;21.07;10.03;;;;;;;4.41;50.84;100913.09;5099103;28;20224;-67
2023/03/02 06:42:55;;;;;;;29.40;10.23;;;;;;;4.46;50.88;100913.66;5100351;28;20213;-67
2023/03/02 06:45:23;;;;;;;19.33;10.27;;;;;;;4.44;50.77;100915.53;5102926;28;20211;-69
2023/03/02 06:47:52;;;;;;;21.93;10.40;;;;;;;4.42;50.68;100917.41;5104010;28;20241;-67
2023/03/02 06:50:20;;;;;;;27.17;10.67;;;;;;;4.44;50.77;100920.78;5101248;28;20923;-67
2023/03/02 06:52:48;;;;;;;20.20;9.50;;;;;;;4.48;50.66;100920.50;5101372;28;20239;-68
2023/03/02 06:55:15;;;;;;;21.07;10.03;;;;;;;4.52;50.29;100923.75;5101335;28;20213;-68
2023/03/02 06:57:43;;;;;;;20.30;10.10;;;;;;;4.50;50.61;100931.72;5102447;28;20214;-68
2023/03/02 07:00:15;;;;;;;22.73;10.70;;;;;;;4.61;50.39;100928.44;5102158;28;20221;-67
2023/03/02 07:02:44;;;;;;;20.70;9.73;;;;;;;4.64;50.17;100923.00;5103110;28;20288;-67
2023/03/02 07:05:13;;;;;;;22.77;10.10;;;;;;;4.70;49.96;100919.94;5099686;28;20862;-67
2023/03/02 07:07:41;;;;;;;30.67;10.53;;;;;;;4.70;50.32;100921.72;5100779;28;20209;-67
2023/03/02 07:10:11;;;;;;;22.90;10.27;;;;;;;4.76;50.92;100918.69;5099857;27;20218;-68
2023/03/02 07:12:38;;;;;;;22.90;9.83;;;;;;;4.89;55.62;100925.69;5096943;28;20205;-67
2023/03/02 07:15:09;;;;;;;21.73;10.40;;;;;;;5.04;51.49;100925.63;5094250;28;20756;-67
2023/03/02 07:17:38;;;;;;;28.23;10.57;;;;;;;4.99;49.88;100922.47;5097264;28;20217;-66
2023/03/02 07:20:07;;;;;;;31.37;11.73;;;;;;;4.97;49.79;100922.56;5086808;28;20578;-68
2023/03/02 07:22:36;;;;;;;21.70;11.10;;;;;;;4.91;49.68;100923.81;5096031;28;20205;-67
2023/03/02 07:25:05;;;;;;;24.43;11.33;;;;;;;4.95;49.73;100926.22;5094339;28;20215;-67
2023/03/02 07:27:32;;;;;;;19.87;10.33;;;;;;;4.97;49.74;100924.34;5091729;28;21134;-68
2023/03/02 07:30:00;;;;;;;24.77;10.47;;;;;;;4.99;49.79;100927.72;5096260;28;20263;-68
2023/03/02 07:32:28;;;;;;;22.63;10.43;;;;;;;5.07;49.33;100920.16;5099775;28;20209;-68
2023/03/02 07:34:56;;;;;;;18.90;9.87;;;;;;;5.14;49.33;100930.16;5096318;28;20244;-68
2023/03/02 07:37:24;;;;;;;23.53;10.77;;;;;;;5.19;49.18;100920.16;5099607;28;20208;-67
2023/03/02 07:39:54;;;;;;;23.33;10.43;;;;;;;5.30;49.03;100924.72;5101040;28;20209;-68
2023/03/02 07:42:22;;;;;;;21.30;10.40;;;;;;;5.36;48.93;100923.47;5101245;28;20294;-67
2023/03/02 07:44:52;;;;;;;27.53;10.63;;;;;;;5.39;48.82;100920.63;5102772;27;20202;-67
2023/03/02 07:47:20;;;;;;;20.93;10.40;;;;;;;5.37;49.11;100918.09;5100029;28;20212;-67
2023/03/02 07:49:47;;;;;;;20.70;9.73;;;;;;;5.45;49.08;100920.22;5097584;28;20233;-66
2023/03/02 07:52:15;;;;;;;22.00;10.23;;;;;;;5.44;48.90;100918.53;5101026;27;20217;-67
2023/03/02 07:54:43;;;;;;;25.30;10.73;;;;;;;5.50;48.98;100920.75;5098644;28;21174;-69
2023/03/02 07:57:14;;;;;;;21.50;10.13;;;;;;;5.56;48.79;100912.41;5100777;28;20216;-69
2023/03/02 07:59:42;;;;;;;20.30;10.43;;;;;;;5.66;48.60;100916.94;5098139;28;20194;-68
2023/03/02 08:02:13;;;;;;;22.27;10.53;;;;;;;5.72;48.31;100918.31;5096883;28;20213;-69
2023/03/02 08:04:41;;;;;;;22.03;10.27;;;;;;;5.79;48.40;100924.00;5097508;28;20718;-68
2023/03/02 08:07:09;;;;;;;19.10;10.20;;;;;;;5.82;48.11;100915.88;5095979;27;20206;-67
2023/03/02 08:09:38;;;;;;;22.27;10.97;;;;;;;5.86;48.27;100914.72;5100039;27;20690;-67
2023/03/02 08:12:06;;;;;;;19.87;10.27;;;;;;;5.97;47.99;100918.34;5096362;28;20220;-69
2023/03/02 08:14:35;;;;;;;21.33;10.53;;;;;;;5.96;48.28;100915.81;5096510;28;20206;-67
2023/03/02 08:17:04;;;;;;;21.20;11.00;;;;;;;6.03;48.05;100917.06;5093902;28;20214;-68
2023/03/02 08:19:32;;;;;;;22.20;10.43;;;;;;;6.10;48.07;100914.81;5094508;28;20236;-68
2023/03/02 08:22:00;;;;;;;20.57;10.20;;;;;;;6.15;47.83;100916.19;5099408;28;20210;-68
2023/03/02 08:24:28;;;;;;;18.30;9.90;;;;;;;6.27;47.66;100915.31;5093559;28;20290;-68
2023/03/02 08:26:56;;;;;;;21.77;11.27;;;;;;;6.38;47.57;100912.75;5089700;27;21163;-66
2023/03/02 08:29:23;;;;;;;21.20;12.10;;;;;;;6.47;47.32;100913.88;5091163;28;20230;-67
2023/03/02 08:31:53;;;;;;;21.57;10.97;;;;;;;6.56;47.13;100917.63;5093174;27;20206;-66
2023/03/02 08:34:21;;;;;;;30.80;12.30;;;;;;;6.73;46.94;100918.09;5095074;28;20672;-67
2023/03/02 08:36:48;;;;;;;20.23;10.93;;;;;;;6.94;46.67;100926.22;5098698;28;20234;-67
2023/03/02 08:39:16;;;;;;;20.73;10.73;;;;;;;7.06;46.59;100919.16;5097151;28;20205;-68
2023/03/02 08:41:44;;;;;;;25.57;11.00;;;;;;;7.28;46.23;100906.06;5096358;28;20203;-68
2023/03/02 08:44:12;;;;;;;23.93;11.57;;;;;;;7.46;45.97;100906.47;5097621;27;20219;-67
2023/03/02 08:46:39;;;;;;;22.73;11.93;;;;;;;7.69;45.54;100910.78;5098260;27;20211;-67
2023/03/02 08:49:08;;;;;;;22.70;11.40;;;;;;;7.91;44.97;100899.41;5097953;27;20243;-67
2023/03/02 08:51:36;;;;;;;27.73;12.33;;;;;;;8.27;44.56;100904.41;5097923;28;20252;-67
2023/03/02 08:54:04;;;;;;;24.97;12.70;;;;;;;8.86;43.43;100895.25;5096470;28;20216;-67
2023/03/02 08:56:36;;;;;;;21.87;12.67;;;;;;;9.29;42.40;100895.16;5097949;27;20224;-67
2023/03/02 08:59:05;;;;;;;19.83;11.50;;;;;;;9.66;41.71;100888.41;5095557;28;20207;-68
2023/03/02 09:01:35;;;;;;;22.13;12.73;;;;;;;10.23;41.22;100886.13;5096761;28;20292;-67
2023/03/02 09:04:05;;;;;;;24.40;13.00;;;;;;;10.90;39.54;100889.72;5096205;28;20206;-67
2023/03/02 09:06:37;;;;;;;21.57;12.93;;;;;;;12.24;37.56;100882.34;5096681;28;20229;-67
2023/03/02 09:09:06;;;;;;;22.23;13.23;;;;;;;14.23;34.49;100883.38;5094847;28;20202;-67
2023/03/02 09:11:34;;;;;;;26.90;13.47;;;;;;;15.91;32.08;100873.88;5092629;28;20240;-68
2023/03/02 09:14:02;;;;;;;23.17;13.93;;;;;;;16.81;30.25;100875.06;5095085;27;20217;-68
2023/03/02 09:16:30;;;;;;;21.03;13.50;;;;;;;17.26;29.62;100868.84;5101194;27;20285;-67
2023/03/02 09:18:58;;;;;;;22.97;13.27;;;;;;;18.84;27.60;100871.94;5096405;28;21034;-66
2023/03/02 09:21:26;;;;;;;22.90;14.00;;;;;;;20.67;25.47;100865.22;5099343;28;20202;-66
2023/03/02 09:23:57;;;;;;;21.80;13.47;;;;;;;21.16;24.80;100864.84;5097574;28;20647;-66
2023/03/02 09:26:25;;;;;;;22.70;13.83;;;;;;;21.76;23.87;100869.16;5100526;28;20237;-67
2023/03/02 09:28:53;;;;;;;23.43;14.63;;;;;;;22.19;23.23;100865.91;5100243;28;20241;-67
2023/03/02 09:31:21;;;;;;;21.67;13.37;;;;;;;21.77;23.49;100862.72;5101478;28;20229;-67
2023/03/02 09:33:49;;;;;;;19.47;13.63;;;;;;;20.36;25.00;100863.88;5104837;27;20214;-67
2023/03/02 09:36:23;;;;;;;23.93;14.43;;;;;;;19.15;26.50;100872.44;5088702;28;20240;-67
2023/03/02 09:38:52;;;;;;;19.17;13.70;;;;;;;18.47;27.79;100871.09;5083248;28;20221;-67
2023/03/02 09:41:38;;;;;;;27.13;14.73;;;;;;;18.11;28.21;100865.75;5082859;28;20203;-67
2023/03/02 09:44:24;;;;;;;22.93;14.03;;;;;;;17.97;28.52;100869.28;5082869;28;20333;-67
2023/03/02 09:46:56;;;;;;;18.63;13.87;;;;;;;17.99;28.14;100861.88;5085584;28;20598;-66
2023/03/02 09:49:43;;;;;;;25.10;14.17;;;;;;;17.92;28.50;100852.91;5085215;28;20297;-68
2023/03/02 09:52:22;;;;;;;21.63;15.00;;;;;;;18.73;27.59;100855.31;5083531;28;20214;-67
2023/03/02 09:54:49;;;;;;;21.93;15.27;;;;;;;19.39;26.80;100850.50;5083361;28;20210;-68
2023/03/02 09:57:22;;;;;;;17.40;12.83;;;;;;;19.95;26.19;100855.84;5084179;28;20237;-69
2023/03/02 09:59:54;;;;;;;20.57;14.03;;;;;;;21.01;24.85;100848.88;5085740;28;20456;-67
2023/03/02 10:02:28;;;;;;;24.23;13.97;;;;;;;22.61;23.13;100849.06;5080744;28;20203;-67
2023/03/02 10:04:58;;;;;;;20.03;14.00;;;;;;;22.20;23.42;100851.38;5081241;28;20594;-68
2023/03/02 10:07:28;;;;;;;19.77;14.30;;;;;;;22.37;23.40;100857.94;5080103;28;20235;-70
2023/03/02 10:10:04;;;;;;;18.95;14.60;;;;;;;23.14;22.73;100854.94;5083310;28;20218;-72
2023/03/02 10:12:58;;;;;;;20.45;13.70;;;;;;;24.47;21.10;100851.63;5083335;28;20215;-70
2023/03/02 10:15:31;;;;;;;20.42;14.38;;;;;;;25.05;20.63;100851.81;5083793;28;20211;-69
2023/03/02 10:18:03;;;;;;;19.23;14.77;;;;;;;25.27;20.42;100849.34;5082058;28;20207;-68
2023/03/02 10:20:37;;;;;;;28.17;14.68;;;;;;;25.78;20.08;100844.03;5081363;28;20694;-69
2023/03/02 10:23:19;;;;;;;19.25;14.35;;;;;;;25.08;20.76;100833.16;5082581;28;20305;-68
2023/03/02 10:25:51;;;;;;;17.70;13.45;;;;;;;23.92;21.48;100846.28;5082647;28;20210;-67
2023/03/02 10:28:24;;;;;;;19.05;14.38;;;;;;;24.63;21.31;100848.25;5083154;28;20203;-66
2023/03/02 10:30:57;;;;;;;20.42;14.07;;;;;;;25.43;20.59;100845.91;5083368;28;20219;-67
2023/03/02 10:33:27;;;;;;;18.13;12.68;;;;;;;26.29;19.97;100847.84;5082568;28;20203;-70
2023/03/02 10:35:55;;;;;;;22.25;13.85;;;;;;;26.67;19.46;100846.34;5092173;27;20932;-70
2023/03/02 10:38:25;;;;;;;18.80;13.90;;;;;;;26.99;19.38;100852.94;5103282;28;20206;-70
2023/03/02 10:40:58;;;;;;;18.88;14.38;;;;;;;26.83;18.98;100842.81;5098936;28;20211;-69
2023/03/02 10:43:34;;;;;;;18.92;14.90;;;;;;;27.22;18.98;100835.59;5100017;28;20210;-69
2023/03/02 10:46:03;;;;;;;25.48;14.95;;;;;;;28.21;18.34;100830.16;5102092;28;20202;-73
2023/03/02 10:48:31;;;;;;;18.52;14.35;;;;;;;28.75;17.93;100834.53;5097746;28;20329;-73
2023/03/02 10:51:00;;;;;;;18.50;13.80;;;;;;;29.10;17.14;100817.66;5097458;28;20230;-71
2023/03/02 10:53:28;;;;;;;19.48;14.90;;;;;;;29.38;17.45;100826.56;5102322;28;20213;-73
2023/03/02 10:55:56;;;;;;;20.23;14.25;;;;;;;28.04;17.95;100824.75;5102081;28;20233;-70
2023/03/02 10:58:29;;;;;;;16.90;14.38;;;;;;;26.79;18.87;100833.50;5101723;28;22238;-71
2023/03/02 11:01:02;;;;;;;19.45;13.27;;;;;;;27.18;18.89;100813.47;5099893;28;20210;-71
2023/03/02 11:03:31;;;;;;;20.23;13.65;;;;;;;27.35;18.96;100817.00;5102288;28;20308;-72
2023/03/02 11:06:10;;;;;;;18.30;13.57;;;;;;;25.86;19.81;100800.19;5102354;28;21045;-71
2023/03/02 11:08:38;;;;;;;23.50;14.35;;;;;;;23.84;21.74;100797.81;5101522;28;20208;-70
2023/03/02 11:11:06;;;;;;;15.25;13.10;;;;;;;21.93;23.45;100796.63;5101607;28;20302;-71
2023/03/02 11:13:35;;;;;;;22.08;15.05;;;;;;;20.62;25.19;100799.28;5104104;28;20845;-72
2023/03/02 11:16:23;;;;;;;23.58;14.55;;;;;;;19.78;26.44;100796.13;5101013;28;20445;-67
2023/03/02 11:18:55;;;;;;;20.48;14.20;;;;;;;19.43;26.70;100797.16;5100605;28;20210;-69
2023/03/02 11:21:29;;;;;;;21.30;13.50;;;;;;;20.43;25.87;100791.19;5101265;28;20205;-67
2023/03/02 11:24:05;;;;;;;21.90;13.55;;;;;;;20.69;25.43;100788.50;5103137;28;20765;-67
2023/03/02 11:26:39;;;;;;;19.10;13.07;;;;;;;20.41;25.95;100777.91;5101009;28;20233;-69
2023/03/02 11:29:16;;;;;;;19.73;13.55;;;;;;;20.82;25.45;100783.16;5100856;28;20211;-69